M I D A S
Marine Information and Data Acquisition System
Tripno 822 of the Zeeleeuw from 2004-12-17 08:20:03 to 2004-12-17 16:27:23
Back to CruiseResearch ActivitiesStationsMapUnderway DataData graphs

EquipmentUnitsComment
TimeDGPSUTC
LatitudeDGPSDM.mWGS84
LongitudeDGPSDM.mWGS84
HeadingGyrodeg 
SOGDGPSknotsSpeed over ground
COGDGPSdegCourse over ground
DepthEcho soundermeters200 kHz
Missing or incorrect values are displayed as -999
Navigation data collected by the RV Zeeleeuw from 2004-12-17 06:34:48 to 2004-12-17 17:09:45
Time Latitude Longitude Heading SOG COG Depth
2004-12-17 06:35:53 51°13.599 2°56.104 126.4   12 -999
2004-12-17 06:36:53 51°13.596 2°56.102 126.4   332 -999
2004-12-17 06:37:53 51°13.596 2°56.101 126.6   356 -999
2004-12-17 06:38:53 51°13.595 2°56.101 126.6   358 -999
2004-12-17 06:39:53 51°13.595 2°56.101 126.4   340 -999
2004-12-17 06:40:53 51°13.595 2°56.101 126.3   26 -999
2004-12-17 06:41:53 51°13.596 2°56.101 126.4   32 -999
2004-12-17 06:42:53 51°13.596 2°56.101 126.4   293 -999
2004-12-17 06:43:53 51°13.596 2°56.101 126.4   10 -999
2004-12-17 06:44:53 51°13.596 2°56.102 126.4   348 -999
2004-12-17 06:45:53 51°13.594 2°56.102 126.4   282 -999
2004-12-17 06:46:53 51°13.593 2°56.102 126.2   355 -999
2004-12-17 06:47:53 51°13.594 2°56.102 126.2   350 -999
2004-12-17 06:48:53 51°13.594 2°56.102 126.3   1 -999
2004-12-17 06:49:53 51°13.595 2°56.102 126.3   11 -999
2004-12-17 06:50:53 51°13.596 2°56.102 126.4   14 -999
2004-12-17 06:51:53 51°13.596 2°56.102 126.4   5 -999
2004-12-17 06:52:53 51°13.595 2°56.102 126.4   259 -999
2004-12-17 06:53:53 51°13.594 2°56.102 126.5   265 -999
2004-12-17 06:54:53 51°13.595 2°56.103 126.5   348 -999
2004-12-17 06:55:53 51°13.594 2°56.104 126.3   273 -999
2004-12-17 06:56:53 51°13.592 2°56.103 126.4   267 -999
2004-12-17 06:57:53 51°13.592 2°56.102 126.4   259 -999
2004-12-17 06:58:53 51°13.591 2°56.102 126.4   16 -999
2004-12-17 06:59:53 51°13.593 2°56.102 126.4   222 -999
2004-12-17 07:00:53 51°13.593 2°56.102 126.3   37 -999
2004-12-17 07:01:53 51°13.594 2°56.102 126.3   305 -999
2004-12-17 07:02:53 51°13.594 2°56.102 126.2   35 -999
2004-12-17 07:03:53 51°13.595 2°56.102 126   337 -999
2004-12-17 07:04:53 51°13.596 2°56.102 126   331 -999
2004-12-17 07:05:53 51°13.597 2°56.102 126.1   244 -999
2004-12-17 07:06:53 51°13.596 2°56.102 126.1   228 -999
2004-12-17 07:07:53 51°13.596 2°56.101 126.1   294 -999
2004-12-17 07:08:54 51°13.596 2°56.101 126.1   7 -999
2004-12-17 07:09:53 51°13.596 2°56.101 126.1   259 -999
2004-12-17 07:10:54 51°13.596 2°56.101 126.2   269 -999
2004-12-17 07:11:53 51°13.596 2°56.102 126.1   219 -999
2004-12-17 07:12:54 51°13.596 2°56.101 126.1   204 -999
2004-12-17 07:13:53 51°13.596 2°56.102 126.1   286 -999
2004-12-17 07:14:53 51°13.596 2°56.102 126.1   54 -999
2004-12-17 07:15:54 51°13.596 2°56.102 126.1   304 -999
2004-12-17 07:16:53 51°13.596 2°56.101 125.9   134 -999
2004-12-17 07:17:53 51°13.597 2°56.101 126   358 -999
2004-12-17 07:18:53 51°13.596 2°56.102 125.8   324 -999
2004-12-17 07:19:53 51°13.596 2°56.102 125.7   346 -999
2004-12-17 07:20:54 51°13.596 2°56.102 125.7   277 -999
2004-12-17 07:21:53 51°13.596 2°56.102 125.8   27 -999
2004-12-17 07:22:53 51°13.595 2°56.101 125.9   220 -999
2004-12-17 07:23:54 51°13.595 2°56.101 125.9   286 -999
2004-12-17 07:24:53 51°13.595 2°56.102 125.8   208 -999
2004-12-17 07:25:54 51°13.595 2°56.102 126.1   62 -999
2004-12-17 07:26:53 51°13.595 2°56.102 126.1   263 -999
2004-12-17 07:27:54 51°13.594 2°56.102 126.1   218 -999
2004-12-17 07:28:54 51°13.595 2°56.102 126   341 -999
2004-12-17 07:29:53 51°13.596 2°56.101 126   342 -999
2004-12-17 07:30:54 51°13.596 2°56.101 126.1   252 -999
2004-12-17 07:31:54 51°13.595 2°56.101 126   244 -999
2004-12-17 07:32:54 51°13.595 2°56.101 125.9   249 -999
2004-12-17 07:33:54 51°13.595 2°56.102 125.9   296 -999
2004-12-17 07:34:54 51°13.596 2°56.102 126   257 -999
2004-12-17 07:35:54 51°13.596 2°56.102 126.1   243 -999
2004-12-17 07:36:51 51°13.596 2°56.103 126.2   117 8.9
2004-12-17 07:37:51 51°13.595 2°56.103 126.2   268 8.9
2004-12-17 07:38:51 51°13.595 2°56.102 126.2   262 8.8
2004-12-17 07:39:51 51°13.595 2°56.102 126.3   349 8.8
2004-12-17 07:40:51 51°13.595 2°56.103 126.4   333 8.8
2004-12-17 07:41:51 51°13.595 2°56.103 126.4   302 8.8
2004-12-17 07:42:51 51°13.595 2°56.103 126.3   169 8.7
2004-12-17 07:43:51 51°13.594 2°56.103 126.2   139 8.7
2004-12-17 07:44:51 51°13.595 2°56.104 126.2   258 8.7
2004-12-17 07:45:51 51°13.595 2°56.104 126.2   322 8.6
2004-12-17 07:46:51 51°13.594 2°56.104 126.2   297 8.6
2004-12-17 07:47:51 51°13.594 2°56.103 126.3   241 8.5
2004-12-17 07:48:51 51°13.593 2°56.103 126.3   285 8.6
2004-12-17 07:49:51 51°13.593 2°56.103 126.2   318 8.5
2004-12-17 07:50:51 51°13.593 2°56.102 126.2   251 8.5
2004-12-17 07:51:51 51°13.593 2°56.103 126.2   338 8.5
2004-12-17 07:52:51 51°13.593 2°56.103 126.2   290 8.5
2004-12-17 07:53:51 51°13.593 2°56.104 126.2   248 8.5
2004-12-17 07:54:51 51°13.593 2°56.103 126.2   214 8.5
2004-12-17 07:55:51 51°13.593 2°56.104 126.1   147 8.5
2004-12-17 07:56:51 51°13.594 2°56.102 126   276 8.5
2004-12-17 07:57:51 51°13.594 2°56.103 126   211 8.5
2004-12-17 07:58:51 51°13.594 2°56.102 125.9   346 8.5
2004-12-17 07:59:49 51°13.595 2°56.102 125.6   251 8.5
2004-12-17 08:00:50 51°13.595 2°56.102 125.6   350 8.5
2004-12-17 08:01:51 51°13.596 2°56.101 125.6   286 8.5
2004-12-17 08:02:51 51°13.596 2°56.101 125.7   264 8.5
2004-12-17 08:03:48 51°13.593 2°56.102 125.5   226 8.5
2004-12-17 08:04:51 51°13.596 2°56.101 125.6   51 8.5
2004-12-17 08:05:51 51°13.595 2°56.101 125.6   131 8.5
2004-12-17 08:06:51 51°13.595 2°56.101 125.6   243 8.3
2004-12-17 08:07:49 51°13.595 2°56.101 125.7   139 8.4
2004-12-17 08:08:51 51°13.595 2°56.103 125.9   91 8.3
2004-12-17 08:09:51 51°13.595 2°56.103 126.2   144 8.3
2004-12-17 08:10:51 51°13.595 2°56.103 126.8   38 8.3
2004-12-17 08:11:51 51°13.595 2°56.103 125.8   188 8.3
2004-12-17 08:12:51 51°13.595 2°56.103 125.9   260 8.3
2004-12-17 08:13:51 51°13.595 2°56.103 125.8   25 8.2
2004-12-17 08:14:51 51°13.595 2°56.104 126   195 8.2
2004-12-17 08:15:51 51°13.595 2°56.103 126.1   16 8.2
2004-12-17 08:16:51 51°13.594 2°56.102 126.5   43 8.2
2004-12-17 08:17:51 51°13.594 2°56.1 126.1   359 8.1
2004-12-17 08:18:48 51°13.594 2°56.1 121.9   155 8.2
2004-12-17 08:19:51 51°13.598 2°56.084 116.2 1.8 296 8
2004-12-17 08:20:51 51°13.621 2°56.007 116.6 3.6 295 -999
2004-12-17 08:21:51 51°13.652 2°55.913 123.9 4.3 300 -999
2004-12-17 08:22:51 51°13.689 2°55.819 120.4 4.1 302 -999
2004-12-17 08:23:51 51°13.71 2°55.757 90.7 0.5 354 14.3
2004-12-17 08:24:51 51°13.708 2°55.737 50.7 0.7 260 -999
2004-12-17 08:25:51 51°13.766 2°55.707 332.3 5.4 328 10.6
2004-12-17 08:26:51 51°13.879 2°55.587 336.3 9.4 332 11
2004-12-17 08:27:51 51°14.032 2°55.478 340.8 10.3 336 10.6
2004-12-17 08:28:49 51°14.19 2°55.362 337.8 11.2 332 11.3
2004-12-17 08:29:51 51°14.332 2°55.143 315.7 12.1 312 10.9
2004-12-17 08:30:51 51°14.487 2°54.909 324.4 13.3 319 10.2
2004-12-17 08:31:51 51°14.694 2°54.79 354.1 13.4 347 9.7
2004-12-17 08:32:51 51°14.913 2°54.72 357.5 13.4 352 9.3
2004-12-17 08:33:51 51°15.131 2°54.661 358.3 13.2 353 8.4
2004-12-17 08:34:51 51°15.35 2°54.606 357.5 13.4 350 8.9
2004-12-17 08:35:51 51°15.573 2°54.549 358.2 13.7 351 9.6
2004-12-17 08:36:51 51°15.797 2°54.494 358.5 13.7 351 10.4
2004-12-17 08:37:51 51°16.018 2°54.426 356.3 13.1 349 11.2
2004-12-17 08:38:51 51°16.176 2°54.349 349.8 8.4 341 11.9
2004-12-17 08:39:51 51°16.261 2°54.307 354 3.5 345 12.1
2004-12-17 08:40:51 51°16.282 2°54.304 29.7 0.8 18 12
2004-12-17 08:41:51 51°16.298 2°54.309 25 1 11 12.2
2004-12-17 08:42:51 51°16.316 2°54.313 17.4 1.2 20 12
2004-12-17 08:43:51 51°16.353 2°54.315 6.8 2.7 357 11.9
2004-12-17 08:44:51 51°16.4 2°54.313 8 2.7 3 11.8
2004-12-17 08:45:51 51°16.447 2°54.311 7.6 3 359 12.1
2004-12-17 08:46:51 51°16.492 2°54.34 49.4 2.8 42 12.1
2004-12-17 08:47:51 51°16.505 2°54.405 92.2 2.5 87 12.1
2004-12-17 08:48:51 51°16.502 2°54.474 99.7 2.6 96 11.8
2004-12-17 08:49:51 51°16.499 2°54.545 96.6 2.7 95 11.6
2004-12-17 08:50:49 51°16.496 2°54.618 97.8 2.9 95 11.4
2004-12-17 08:51:51 51°16.49 2°54.696 99.4 2.8 95 11.4
2004-12-17 08:52:51 51°16.486 2°54.771 94.5 2.8 90 11.2
2004-12-17 08:53:51 51°16.489 2°54.845 88.6 2.8 90 10.8
2004-12-17 08:54:51 51°16.49 2°54.919 93.5 2.8 95 11
2004-12-17 08:55:51 51°16.49 2°54.994 94.6 2.8 93 11.2
2004-12-17 08:56:51 51°16.489 2°55.068 96.8 2.8 93 11.2
2004-12-17 08:57:51 51°16.487 2°55.141 92.8 2.8 90 11
2004-12-17 08:58:51 51°16.489 2°55.215 87.8 2.8 86 10.9
2004-12-17 08:59:51 51°16.491 2°55.29 92.1 2.9 92 10.9
2004-12-17 09:00:51 51°16.486 2°55.362 99.4 2.6 98 11
2004-12-17 09:01:51 51°16.479 2°55.431 97.9 2.6 96 10.8
2004-12-17 09:02:51 51°16.475 2°55.501 97.2 2.6 97 10.7
2004-12-17 09:03:51 51°16.469 2°55.571 100.4 2.6 100 10.6
2004-12-17 09:04:51 51°16.464 2°55.64 94.8 2.7 92 10.5
2004-12-17 09:05:51 51°16.464 2°55.71 90.7 2.7 91 10.5
2004-12-17 09:06:51 51°16.462 2°55.78 97.2 2.6 97 10.4
2004-12-17 09:07:51 51°16.454 2°55.848 101.6 2.6 100 10.3
2004-12-17 09:08:51 51°16.447 2°55.916 96.1 2.6 96 10.2
2004-12-17 09:09:51 51°16.445 2°55.984 92.4 2.6 94 10.2
2004-12-17 09:10:51 51°16.443 2°56.052 91 2.6 90 10.1
2004-12-17 09:11:51 51°16.443 2°56.12 90.7 2.6 89 10
2004-12-17 09:12:51 51°16.443 2°56.188 94.6 2.5 95 9.9
2004-12-17 09:13:51 51°16.438 2°56.256 98.4 2.6 99 9.9
2004-12-17 09:14:51 51°16.432 2°56.325 95.5 2.6 95 9.9
2004-12-17 09:15:51 51°16.43 2°56.394 94.1 2.6 93 9.8
2004-12-17 09:16:51 51°16.417 2°56.454 114.2 2.1 119 9.9
2004-12-17 09:17:51 51°16.401 2°56.486 123.4 1.3 135 9.9
2004-12-17 09:18:51 51°16.388 2°56.501 130.7 0.7 151 9.8
2004-12-17 09:19:51 51°16.38 2°56.506 134.4 0.6 172 9.7
2004-12-17 09:20:51 51°16.374 2°56.505 140 0.4 184 9.9
2004-12-17 09:21:51 51°16.371 2°56.501 141.9 0.1 239 9.7
2004-12-17 09:22:51 51°16.369 2°56.498 140.8 0.5 173 9.7
2004-12-17 09:23:51 51°16.344 2°56.504 166.3 2.1 186 9.7
2004-12-17 09:24:51 51°16.298 2°56.467 214.1 3.8 218 9.7
2004-12-17 09:25:51 51°16.265 2°56.384 245.6 3.6 250 9.5
2004-12-17 09:26:51 51°16.254 2°56.294 258.4 3.3 260 9.6
2004-12-17 09:27:51 51°16.249 2°56.21 261.2 3.2 263 9.6
2004-12-17 09:28:51 51°16.243 2°56.13 260.5 2.9 264 9.6
2004-12-17 09:29:51 51°16.238 2°56.056 264.9 2.8 266 9.6
2004-12-17 09:30:51 51°16.238 2°55.98 268.9 2.9 268 9.6
2004-12-17 09:31:51 51°16.238 2°55.903 269.4 2.9 269 9.7
2004-12-17 09:32:51 51°16.239 2°55.827 271.6 2.9 272 9.7
2004-12-17 09:33:51 51°16.241 2°55.751 274.2 2.9 276 9.7
2004-12-17 09:34:51 51°16.244 2°55.674 276.4 3 276 10
2004-12-17 09:35:51 51°16.248 2°55.596 275.3 2.9 275 10
2004-12-17 09:36:51 51°16.252 2°55.518 275.8 2.9 273 10.1
2004-12-17 09:37:51 51°16.256 2°55.44 276.3 2.9 276 10.6
2004-12-17 09:38:51 51°16.26 2°55.362 276.5 3 276 10.3
2004-12-17 09:39:51 51°16.263 2°55.286 277.1 2.8 277 10.3
2004-12-17 09:40:51 51°16.268 2°55.213 280.8 2.8 276 10.4
2004-12-17 09:41:51 51°16.276 2°55.14 283.3 2.8 281 10.4
2004-12-17 09:42:51 51°16.283 2°55.068 286.5 2.7 279 10.7
2004-12-17 09:43:51 51°16.293 2°54.997 293.5 2.7 287 10.4
2004-12-17 09:44:51 51°16.306 2°54.927 301.7 2.8 286 10.6
2004-12-17 09:45:51 51°16.323 2°54.862 309.5 2.6 296 10.5
2004-12-17 09:46:51 51°16.345 2°54.796 309.2 2.8 295 10.2
2004-12-17 09:47:51 51°16.366 2°54.724 306.2 3 294 10
2004-12-17 09:48:51 51°16.388 2°54.649 308.9 3.1 296 10.2
2004-12-17 09:49:51 51°16.416 2°54.579 316.5 3.2 304 10.7
2004-12-17 09:50:51 51°16.442 2°54.514 316.3 2.9 302 11.1
2004-12-17 09:51:51 51°16.469 2°54.445 314.2 3.2 301 11
2004-12-17 09:52:51 51°16.497 2°54.375 317.7 3 305 11.3
2004-12-17 09:53:51 51°16.526 2°54.312 322.3 3 306 11.6
2004-12-17 09:54:51 51°16.557 2°54.251 327.4 2.8 312 11.3
2004-12-17 09:55:51 51°16.588 2°54.199 334 2.7 316 11.6
2004-12-17 09:56:51 51°16.614 2°54.151 328.2 2.2 304 11.6
2004-12-17 09:57:51 51°16.629 2°54.107 317.1 1.7 293 11.6
2004-12-17 09:58:51 51°16.637 2°54.07 309.2 1.2 284 11.6
2004-12-17 09:59:51 51°16.641 2°54.042 306.2 1 277 11.7
2004-12-17 10:00:51 51°16.644 2°54.018 302 0.9 280 11.6
2004-12-17 10:01:51 51°16.648 2°53.994 299.6 1.1 288 11.6
2004-12-17 10:02:51 51°16.658 2°53.925 289.6 4 282 11.7
2004-12-17 10:03:51 51°16.686 2°53.748 293.7 8.8 286 11.4
2004-12-17 10:04:51 51°16.756 2°53.472 304 12.1 296 10.8
2004-12-17 10:05:51 51°16.863 2°53.199 317 12.1 308 9.2
2004-12-17 10:06:51 51°16.992 2°52.964 318.2 12 310 7.9
2004-12-17 10:07:51 51°17.125 2°52.721 319.3 12.1 312 9.2
2004-12-17 10:08:51 51°17.263 2°52.495 325.4 11.9 318 9.4
2004-12-17 10:09:51 51°17.408 2°52.283 324.6 11.9 317 9.8
2004-12-17 10:10:51 51°17.561 2°52.089 330.4 11.8 322 9.9
2004-12-17 10:11:51 51°17.715 2°51.895 329.5 11.9 322 9.6
2004-12-17 10:12:51 51°17.869 2°51.702 330.3 11.8 323 9.4
2004-12-17 10:13:51 51°18.024 2°51.504 329.3 11.8 322 10.5
2004-12-17 10:14:51 51°18.179 2°51.309 329.9 12 321 11.4
2004-12-17 10:15:51 51°18.334 2°51.11 329.4 12 321 12.5
2004-12-17 10:16:51 51°18.44 2°50.964 333.7 6.8 323 13.1
2004-12-17 10:17:51 51°18.481 2°50.903 333.1 1.3 311 13.7
2004-12-17 10:18:51 51°18.494 2°50.877 320.8 1.3 303 13.5
2004-12-17 10:19:51 51°18.503 2°50.851 309.1 1.5 301 13.8
2004-12-17 10:20:51 51°18.535 2°50.786 331.9 3.7 318 13.9
2004-12-17 10:21:51 51°18.589 2°50.745 358.3 3.4 341 14.1
2004-12-17 10:22:51 51°18.642 2°50.736 12.6 3.2 357 14.1
2004-12-17 10:23:51 51°18.69 2°50.748 30.4 2.9 14 14.3
2004-12-17 10:24:51 51°18.727 2°50.787 49.7 2.7 40 14.1
2004-12-17 10:25:51 51°18.758 2°50.833 54.2 2.6 43 14.3
2004-12-17 10:26:51 51°18.798 2°50.881 46.1 3.3 36 14.2
2004-12-17 10:27:51 51°18.841 2°50.936 49.9 3.4 37 14.3
2004-12-17 10:28:51 51°18.878 2°50.993 55.8 3 45 14.4
2004-12-17 10:29:51 51°18.915 2°51.046 50.2 3.1 37 14.4
2004-12-17 10:30:51 51°18.952 2°51.097 52.1 2.9 42 14.4
2004-12-17 10:31:51 51°18.985 2°51.153 60.8 2.9 48 14.4
2004-12-17 10:32:51 51°19.01 2°51.217 67.8 2.8 60 14.7
2004-12-17 10:33:51 51°19.036 2°51.281 63.6 2.8 56 14.5
2004-12-17 10:34:51 51°19.065 2°51.339 56.6 2.8 50 14.3
2004-12-17 10:35:51 51°19.099 2°51.391 52.2 2.9 44 14.8
2004-12-17 10:36:51 51°19.133 2°51.447 54.8 2.9 46 14.9
2004-12-17 10:37:51 51°19.168 2°51.502 53.3 2.9 47 15.1
2004-12-17 10:38:51 51°19.204 2°51.557 53.4 3 43 15
2004-12-17 10:39:51 51°19.24 2°51.611 55 3 46 15.2
2004-12-17 10:40:51 51°19.272 2°51.672 60.2 2.9 54 15.2
2004-12-17 10:41:51 51°19.302 2°51.732 57.7 2.9 50 15.4
2004-12-17 10:42:51 51°19.335 2°51.786 52.4 2.9 40 15.3
2004-12-17 10:43:51 51°19.371 2°51.838 52.6 2.9 43 15.2
2004-12-17 10:44:51 51°19.405 2°51.892 55.2 2.8 47 15.3
2004-12-17 10:45:51 51°19.437 2°51.949 56.3 2.8 46 15.4
2004-12-17 10:46:51 51°19.466 2°52.008 58.7 2.8 55 15.3
2004-12-17 10:47:51 51°19.497 2°52.062 51.2 2.8 41 15.3
2004-12-17 10:48:51 51°19.534 2°52.107 43.2 2.8 34 15.3
2004-12-17 10:49:51 51°19.574 2°52.148 43.7 2.8 34 15.3
2004-12-17 10:50:51 51°19.603 2°52.197 58.7 2.2 51 15.7
2004-12-17 10:51:51 51°19.614 2°52.231 78 1.1 78 15.6
2004-12-17 10:52:51 51°19.613 2°52.254 97.7 0.8 99 15.6
2004-12-17 10:53:51 51°19.603 2°52.277 115 1.4 133 15.4
2004-12-17 10:54:51 51°19.569 2°52.309 153.1 2.9 165 15.3
2004-12-17 10:55:51 51°19.512 2°52.307 182.5 3.6 192 15.4
2004-12-17 10:56:51 51°19.46 2°52.267 206.8 3.4 212 14.9
2004-12-17 10:57:51 51°19.42 2°52.21 220.1 3.2 228 15.3
2004-12-17 10:58:51 51°19.386 2°52.145 224.7 3.1 233 15.1
2004-12-17 10:59:51 51°19.353 2°52.083 220.3 3 229 15.1
2004-12-17 11:00:51 51°19.319 2°52.014 231.7 3.4 239 15.2
2004-12-17 11:01:51 51°19.287 2°51.941 229.3 3.3 235 15.2
2004-12-17 11:02:51 51°19.257 2°51.869 230.7 3.3 239 15.2
2004-12-17 11:03:51 51°19.225 2°51.8 225.6 3.2 234 15.1
2004-12-17 11:04:51 51°19.189 2°51.739 217.1 3.1 225 15.1
2004-12-17 11:05:51 51°19.151 2°51.68 216.6 3.2 222 15
2004-12-17 11:06:51 51°19.113 2°51.626 217.6 2.9 224 15.1
2004-12-17 11:07:51 51°19.077 2°51.57 215.8 3.1 224 15.1
2004-12-17 11:08:51 51°19.04 2°51.513 212.6 3 223 15
2004-12-17 11:09:51 51°19.001 2°51.459 211.1 3.1 221 14.5
2004-12-17 11:10:51 51°18.961 2°51.404 212.6 3.2 222 14.8
2004-12-17 11:11:51 51°18.919 2°51.351 210.8 3.2 218 14.5
2004-12-17 11:12:51 51°18.876 2°51.296 209.8 3.4 219 14.5
2004-12-17 11:13:51 51°18.833 2°51.245 208.5 3.1 213 14.2
2004-12-17 11:14:51 51°18.79 2°51.198 208.8 3.1 215 14.3
2004-12-17 11:15:51 51°18.748 2°51.145 212.5 3.3 219 14.3
2004-12-17 11:16:51 51°18.706 2°51.089 215.5 3.3 222 14
2004-12-17 11:17:51 51°18.669 2°51.028 216.3 3.2 223 14
2004-12-17 11:18:51 51°18.629 2°50.978 208.2 3.1 216 14.1
2004-12-17 11:19:51 51°18.588 2°50.928 210.7 3.3 221 14.1
2004-12-17 11:20:51 51°18.545 2°50.874 209.6 3.2 218 13.9
2004-12-17 11:21:51 51°18.501 2°50.819 212.1 3.4 218 14
2004-12-17 11:22:51 51°18.459 2°50.763 211.9 3.3 220 13.9
2004-12-17 11:23:51 51°18.417 2°50.708 212.2 3.1 222 13.8
2004-12-17 11:24:51 51°18.377 2°50.65 214.1 3.3 225 13.7
2004-12-17 11:25:51 51°18.346 2°50.591 232.7 2.5 239 14
2004-12-17 11:26:51 51°18.33 2°50.541 241.8 1.9 245 14
2004-12-17 11:27:51 51°18.319 2°50.498 250.2 2.2 251 14
2004-12-17 11:28:51 51°18.31 2°50.382 279 6.5 272 14
2004-12-17 11:29:51 51°18.386 2°50.296 16.9 6 8 14.2
2004-12-17 11:30:51 51°18.524 2°50.412 42.1 11.4 37 14.1
2004-12-17 11:31:51 51°18.645 2°50.665 59 12.4 55 14.2
2004-12-17 11:32:51 51°18.727 2°50.966 71.4 12.4 70 14.3
2004-12-17 11:33:51 51°18.801 2°51.267 69.4 11.9 67 14.3
2004-12-17 11:34:51 51°18.874 2°51.569 71.2 12.3 69 14.2
2004-12-17 11:35:51 51°18.952 2°51.876 69.9 12.7 67 13.8
2004-12-17 11:36:51 51°19.027 2°52.181 72.4 12.4 71 13.4
2004-12-17 11:37:51 51°19.105 2°52.484 71.7 12.6 69 12.5
2004-12-17 11:38:51 51°19.182 2°52.79 71.5 12.2 71 13.1
2004-12-17 11:39:51 51°19.263 2°53.093 70.3 12.1 69 12.7
2004-12-17 11:40:51 51°19.342 2°53.394 70.1 12.3 70 12.6
2004-12-17 11:41:51 51°19.416 2°53.699 72.8 12.6 69 12.3
2004-12-17 11:42:51 51°19.498 2°53.995 67.7 12.2 63 12.4
2004-12-17 11:43:51 51°19.574 2°54.299 70.4 12.4 67 12.3
2004-12-17 11:44:51 51°19.653 2°54.599 70 12 67 12.3
2004-12-17 11:45:51 51°19.731 2°54.9 71.8 12.5 70 12.3
2004-12-17 11:46:51 51°19.809 2°55.202 70.4 12.4 66 12.1
2004-12-17 11:47:51 51°19.889 2°55.504 70 12.2 67 12.1
2004-12-17 11:48:51 51°19.973 2°55.801 69.5 12.2 67 12
2004-12-17 11:49:51 51°20.053 2°56.098 68.7 12 65 12.1
2004-12-17 11:50:51 51°20.137 2°56.397 69.1 12.2 64 12
2004-12-17 11:51:51 51°20.219 2°56.692 70.4 12 66 11.9
2004-12-17 11:52:51 51°20.295 2°56.987 69.8 12 63 11.8
2004-12-17 11:53:51 51°20.372 2°57.282 72.7 12.1 70 11.7
2004-12-17 11:54:51 51°20.452 2°57.576 68.1 12.1 63 11.8
2004-12-17 11:55:51 51°20.531 2°57.87 72.3 12.1 65 11.8
2004-12-17 11:56:51 51°20.616 2°58.163 68.6 12.4 65 11.6
2004-12-17 11:57:51 51°20.69 2°58.462 73.2 11.9 70 11.6
2004-12-17 11:58:51 51°20.775 2°58.759 70.2 12.2 67 11.4
2004-12-17 11:59:51 51°20.856 2°59.059 70.7 12.2 68 11.5
2004-12-17 12:00:51 51°20.938 2°59.357 70.2 12.1 65 11.3
2004-12-17 12:01:51 51°21.009 2°59.562 56.6 7.4 51 11.6
2004-12-17 12:02:51 51°21.069 2°59.7 62.3 5.3 60 11.5
2004-12-17 12:03:51 51°21.102 2°59.773 49.4 1.6 29 11.6
2004-12-17 12:04:51 51°21.121 2°59.773 31.7 1.3 359 11.6
2004-12-17 12:05:51 51°21.151 2°59.79 44.3 2.6 28 11.6
2004-12-17 12:06:51 51°21.183 2°59.852 66.1 3.1 64 11.7
2004-12-17 12:07:51 51°21.198 2°59.932 79.6 3.2 78 11.6
2004-12-17 12:08:51 51°21.207 3°0.015 81.8 3.2 84 11.6
2004-12-17 12:09:51 51°21.212 3°0.097 82.9 3.1 85 11.7
2004-12-17 12:10:51 51°21.223 3°0.174 74 3 69 11.6
2004-12-17 12:11:51 51°21.241 3°0.248 74.7 3 73 11.6
2004-12-17 12:12:51 51°21.246 3°0.327 88.1 3 90 11.7
2004-12-17 12:13:51 51°21.241 3°0.408 94.7 3.1 99 11.6
2004-12-17 12:14:51 51°21.234 3°0.487 92.2 3 94 11.6
2004-12-17 12:15:51 51°21.226 3°0.567 97.8 3.1 105 11.6
2004-12-17 12:16:51 51°21.215 3°0.645 97.2 3 104 11.6
2004-12-17 12:17:51 51°21.209 3°0.723 88.8 2.9 91 11.5
2004-12-17 12:18:51 51°21.211 3°0.801 83.8 2.9 87 11.6
2004-12-17 12:19:51 51°21.218 3°0.876 77.6 2.8 73 11.6
2004-12-17 12:20:51 51°21.229 3°0.95 79.8 2.9 81 11.6
2004-12-17 12:21:51 51°21.235 3°1.026 80.1 2.8 75 11.5
2004-12-17 12:22:51 51°21.246 3°1.1 76 2.9 74 11.6
2004-12-17 12:23:51 51°21.262 3°1.172 72.2 2.9 70 11.5
2004-12-17 12:24:51 51°21.274 3°1.245 82.6 2.9 82 11.5
2004-12-17 12:25:51 51°21.275 3°1.322 89 2.9 92 11.4
2004-12-17 12:26:51 51°21.273 3°1.4 89.2 2.9 92 11.5
2004-12-17 12:27:51 51°21.276 3°1.476 85.9 2.9 86 11.6
2004-12-17 12:28:51 51°21.277 3°1.554 89.9 3 92 11.5
2004-12-17 12:29:51 51°21.268 3°1.635 97.8 3.2 106 11.5
2004-12-17 12:30:51 51°21.255 3°1.715 100.4 3.2 109 11.4
2004-12-17 12:31:51 51°21.242 3°1.796 96.9 3.1 102 11.4
2004-12-17 12:32:51 51°21.233 3°1.878 92.8 3.1 97 11.5
2004-12-17 12:33:51 51°21.229 3°1.959 88.6 3.1 90 11.4
2004-12-17 12:34:51 51°21.225 3°2.041 91.4 3.1 101 11.4
2004-12-17 12:35:51 51°21.217 3°2.116 99.5 2.6 113 11.4
2004-12-17 12:36:51 51°21.2 3°2.148 113.2 1.3 142 11.5
2004-12-17 12:37:51 51°21.185 3°2.16 116.6 0.8 155 11.4
2004-12-17 12:38:51 51°21.16 3°2.177 141.5 2.3 163 11.5
2004-12-17 12:39:51 51°21.11 3°2.172 176.7 3.5 189 11.3
2004-12-17 12:40:51 51°21.053 3°2.123 209.9 4.3 221 11.3
2004-12-17 12:41:51 51°21.005 3°2.052 220.6 3.8 226 11.2
2004-12-17 12:42:51 51°20.969 3°1.975 232.1 3.6 237 11
2004-12-17 12:43:51 51°20.937 3°1.898 231.9 3.4 236 11
2004-12-17 12:44:51 51°20.908 3°1.824 235.4 3.2 239 11
2004-12-17 12:45:51 51°20.884 3°1.75 238.3 3 241 10.9
2004-12-17 12:46:51 51°20.861 3°1.674 238.6 3.3 242 10.9
2004-12-17 12:47:51 51°20.837 3°1.598 238.6 3.2 242 11
2004-12-17 12:48:51 51°20.814 3°1.52 239.6 3.2 246 10.9
2004-12-17 12:49:51 51°20.788 3°1.443 237.8 3.4 243 10.9
2004-12-17 12:50:51 51°20.759 3°1.366 235.4 3.4 239 10.9
2004-12-17 12:51:51 51°20.732 3°1.29 237.4 3.3 241 10.9
2004-12-17 12:52:51 51°20.705 3°1.214 241.3 3.3 243 10.9
2004-12-17 12:53:51 51°20.682 3°1.135 246.8 3.3 245 11.1
2004-12-17 12:54:51 51°20.66 3°1.054 250.7 3.3 249 11
2004-12-17 12:55:51 51°20.643 3°0.971 257.1 3.2 249 10.9
2004-12-17 12:56:51 51°20.629 3°0.885 261.7 3.3 257 11
2004-12-17 12:57:51 51°20.617 3°0.798 266 3.3 259 11
2004-12-17 12:58:51 51°20.608 3°0.711 270.8 3.1 265 11
2004-12-17 12:59:51 51°20.602 3°0.63 271.4 3.2 263 11.1
2004-12-17 13:00:51 51°20.596 3°0.545 272 3.3 266 11.1
2004-12-17 13:01:51 51°20.591 3°0.458 271.3 3.3 264 11.3
2004-12-17 13:02:51 51°20.587 3°0.374 272.1 3.1 264 11.3
2004-12-17 13:03:51 51°20.582 3°0.293 272.2 3.1 264 11.4
2004-12-17 13:04:51 51°20.577 3°0.21 271.2 3.2 264 11.5
2004-12-17 13:05:51 51°20.572 3°0.126 271.9 3.2 265 11.6
2004-12-17 13:06:51 51°20.569 3°0.042 273.6 3.1 266 11.6
2004-12-17 13:07:51 51°20.567 2°59.959 275.7 3.1 267 11.6
2004-12-17 13:08:51 51°20.567 2°59.874 280.5 3.2 270 11.7
2004-12-17 13:09:51 51°20.569 2°59.792 284.3 2.9 273 11.6
2004-12-17 13:10:51 51°20.572 2°59.723 289.5 2.3 278 11.8
2004-12-17 13:11:51 51°20.573 2°59.67 276.9 1.9 266 11.9
2004-12-17 13:12:51 51°20.572 2°59.606 283.2 3.4 275 11.9
2004-12-17 13:13:51 51°20.618 2°59.526 354.6 4.5 341 12
2004-12-17 13:14:51 51°20.695 2°59.584 41.3 7.1 35 12.1
2004-12-17 13:15:51 51°20.838 2°59.761 48.5 12.3 42 12
2004-12-17 13:16:51 51°20.986 3°0.002 50.3 12.9 44 11.9
2004-12-17 13:17:51 51°21.132 3°0.253 50.9 13.1 47 12
2004-12-17 13:18:51 51°21.281 3°0.505 51.9 12.9 48 12.2
2004-12-17 13:19:51 51°21.426 3°0.763 52.9 12.9 50 12.2
2004-12-17 13:20:51 51°21.575 3°1.013 52.1 13 49 12.1
2004-12-17 13:21:51 51°21.722 3°1.263 52.2 13 45 12.4
2004-12-17 13:22:51 51°21.868 3°1.517 53.2 12.7 50 12.4
2004-12-17 13:23:51 51°22.014 3°1.771 52.9 12.9 48 12.2
2004-12-17 13:24:51 51°22.163 3°2.023 51.2 12.8 48 12.2
2004-12-17 13:25:51 51°22.317 3°2.263 48.4 13 41 12.1
2004-12-17 13:26:51 51°22.473 3°2.497 48.4 12.9 43 12.2
2004-12-17 13:27:51 51°22.629 3°2.733 50.4 13 47 12.3
2004-12-17 13:28:51 51°22.787 3°2.974 49.5 13.2 44 12.4
2004-12-17 13:29:51 51°22.94 3°3.215 51.3 12.8 48 10.7
2004-12-17 13:30:51 51°23.104 3°3.442 41.8 13 37 12.8
2004-12-17 13:31:51 51°23.274 3°3.662 40.4 13.1 36 13.3
2004-12-17 13:32:51 51°23.449 3°3.868 39 13.1 34 13.7
2004-12-17 13:33:51 51°23.63 3°4.062 37.5 13.2 35 13.7
2004-12-17 13:34:51 51°23.811 3°4.26 37.8 13.2 33 14.2
2004-12-17 13:35:51 51°23.99 3°4.46 40.1 13.1 36 15.3
2004-12-17 13:36:51 51°24.169 3°4.66 37 13.3 34 19.6
2004-12-17 13:37:51 51°24.352 3°4.851 37.9 13 33 19
2004-12-17 13:38:51 51°24.516 3°5.074 53.3 13 52 14.4
2004-12-17 13:39:51 51°24.651 3°5.345 53.3 13.1 51 13.8
2004-12-17 13:40:51 51°24.777 3°5.625 58.1 12.8 59 13.6
2004-12-17 13:41:51 51°24.894 3°5.921 59 12.9 58 12.9
2004-12-17 13:42:51 51°25.016 3°6.204 52.2 12.4 49 12.1
2004-12-17 13:43:51 51°25.2 3°6.36 28.1 12.6 23 11.8
2004-12-17 13:44:51 51°25.392 3°6.497 29.7 12.6 27 11.5
2004-12-17 13:45:51 51°25.574 3°6.657 36.4 12.5 34 11.4
2004-12-17 13:46:51 51°25.741 3°6.863 44.3 12.6 42 11.2
2004-12-17 13:47:51 51°25.872 3°7.129 55 12.7 54 11
2004-12-17 13:48:51 51°26.007 3°7.388 48.4 12.7 49 9.7
2004-12-17 13:49:51 51°26.138 3°7.651 51.4 12.5 51 9.9
2004-12-17 13:50:51 51°26.272 3°7.917 53.7 12.6 53 10.6
2004-12-17 13:51:51 51°26.385 3°8.176 54.2 9.7 57 11.4
2004-12-17 13:52:51 51°26.442 3°8.28 27.3 2.3 35 11.8
2004-12-17 13:53:51 51°26.446 3°8.285 0.2 0.4 311 11.9
2004-12-17 13:54:51 51°26.474 3°8.275 358.7 2.5 353 11.9
2004-12-17 13:55:51 51°26.514 3°8.302 29.3 2.7 35 12.1
2004-12-17 13:56:51 51°26.544 3°8.364 46.8 3 58 12.3
2004-12-17 13:57:51 51°26.568 3°8.437 49.1 3.1 60 12.2
2004-12-17 13:58:51 51°26.592 3°8.509 48.1 3.1 61 12.3
2004-12-17 13:59:51 51°26.619 3°8.581 45.6 3.1 57 12.4
2004-12-17 14:00:51 51°26.65 3°8.644 37.8 2.9 49 12.5
2004-12-17 14:01:51 51°26.684 3°8.696 31.9 2.7 39 12.6
2004-12-17 14:02:51 51°26.717 3°8.749 39.5 2.8 50 12.7
2004-12-17 14:03:51 51°26.747 3°8.81 39.3 2.9 49 12.5
2004-12-17 14:04:51 51°26.779 3°8.866 36.2 2.8 46 12.6
2004-12-17 14:05:51 51°26.812 3°8.919 34.2 2.8 43 12.6
2004-12-17 14:06:51 51°26.846 3°8.969 31.7 2.8 43 12.4
2004-12-17 14:07:51 51°26.882 3°9.014 29 2.7 37 12.5
2004-12-17 14:08:51 51°26.917 3°9.058 29 2.8 38 12.3
2004-12-17 14:09:51 51°26.954 3°9.101 27.7 2.7 36 12.5
2004-12-17 14:10:51 51°26.991 3°9.144 26.2 2.7 35 12.3
2004-12-17 14:11:51 51°27.029 3°9.185 25.5 2.7 31 12.2
2004-12-17 14:12:51 51°27.068 3°9.224 25.1 2.7 36 12.2
2004-12-17 14:13:51 51°27.107 3°9.262 26.4 2.8 36 12.3
2004-12-17 14:14:51 51°27.142 3°9.307 31.7 2.8 40 12.2
2004-12-17 14:15:51 51°27.178 3°9.357 31.2 2.9 41 12.2
2004-12-17 14:16:51 51°27.214 3°9.407 31.3 2.8 40 12.4
2004-12-17 14:17:51 51°27.25 3°9.455 30.3 2.8 33 12.5
2004-12-17 14:18:51 51°27.286 3°9.503 31.7 2.8 41 12.8
2004-12-17 14:19:51 51°27.323 3°9.552 29.8 2.9 39 13
2004-12-17 14:20:51 51°27.36 3°9.601 29.9 2.9 35 12.9
2004-12-17 14:21:51 51°27.398 3°9.652 29.3 3 44 13
2004-12-17 14:22:51 51°27.435 3°9.701 29.5 2.9 37 13
2004-12-17 14:23:51 51°27.471 3°9.752 30.4 3 44 13
2004-12-17 14:24:51 51°27.508 3°9.806 30.3 2.9 42 13.2
2004-12-17 14:25:51 51°27.539 3°9.866 46.3 3 63 13.3
2004-12-17 14:26:51 51°27.537 3°9.939 77.8 2.7 110 13.2
2004-12-17 14:27:51 51°27.521 3°9.995 87.2 2.2 117 13
2004-12-17 14:28:51 51°27.5 3°10.041 95 2.1 125 13
2004-12-17 14:29:51 51°27.458 3°10.097 147.8 3.9 148 12.7
2004-12-17 14:30:51 51°27.39 3°10.125 180.4 4.3 173 12.8
2004-12-17 14:31:51 51°27.321 3°10.119 207.1 4.1 185 12.7
2004-12-17 14:32:51 51°27.262 3°10.086 230 3.6 202 12.6
2004-12-17 14:33:51 51°27.215 3°10.038 242.3 3.2 216 12.6
2004-12-17 14:34:51 51°27.175 3°9.985 252.6 3 222 12.5
2004-12-17 14:35:51 51°27.144 3°9.931 261.3 2.6 234 12.6
2004-12-17 14:36:51 51°27.118 3°9.877 265.9 2.6 233 12.6
2004-12-17 14:37:51 51°27.096 3°9.824 271.1 2.3 239 12.6
2004-12-17 14:38:51 51°27.078 3°9.771 272.9 2.2 240 12.6
2004-12-17 14:39:51 51°27.058 3°9.72 272.8 2.4 240 12.8
2004-12-17 14:40:51 51°27.041 3°9.669 276.7 2.1 240 12.8
2004-12-17 14:41:51 51°27.026 3°9.622 280.5 1.8 248 12.8
2004-12-17 14:42:51 51°27.013 3°9.574 281.7 2.1 251 12.7
2004-12-17 14:43:51 51°27.003 3°9.513 278.7 2.5 247 12.7
2004-12-17 14:44:51 51°26.986 3°9.454 275.7 2.5 251 12.5
2004-12-17 14:45:51 51°26.971 3°9.396 278.6 2.5 248 12.7
2004-12-17 14:46:51 51°26.961 3°9.337 282.5 2.2 257 12.6
2004-12-17 14:47:51 51°26.954 3°9.278 283.5 2.5 253 12.8
2004-12-17 14:48:51 51°26.946 3°9.219 281.4 2.2 258 12.9
2004-12-17 14:49:51 51°26.936 3°9.16 276.2 2.4 248 13.1
2004-12-17 14:50:51 51°26.921 3°9.102 270.8 2.3 248 13.4
2004-12-17 14:51:51 51°26.901 3°9.046 266.8 2.4 245 13.5
2004-12-17 14:52:51 51°26.882 3°8.987 270.2 2.4 247 13.7
2004-12-17 14:53:51 51°26.868 3°8.93 274.6 2.3 247 13.8
2004-12-17 14:54:51 51°26.859 3°8.873 279 2.2 255 13.9
2004-12-17 14:55:51 51°26.855 3°8.818 284.2 2 264 14.1
2004-12-17 14:56:51 51°26.85 3°8.763 280.5 2 259 14.2
2004-12-17 14:57:51 51°26.844 3°8.708 277.9 2.2 253 14.4
2004-12-17 14:58:51 51°26.832 3°8.653 270.1 2.3 247 14.6
2004-12-17 14:59:51 51°26.811 3°8.601 261.9 2.2 243 14.7
2004-12-17 15:00:51 51°26.785 3°8.551 254.6 2.6 225 14.6
2004-12-17 15:01:51 51°26.754 3°8.506 252.1 2.4 215 14.6
2004-12-17 15:02:51 51°26.734 3°8.48 269.3 1.4 211 14.4
2004-12-17 15:03:51 51°26.721 3°8.472 281.3 0.7 185 14.6
2004-12-17 15:04:51 51°26.711 3°8.471 284.2 0.6 219 14.6
2004-12-17 15:05:51 51°26.678 3°8.357 248.9 8.3 237 14.2
2004-12-17 15:06:51 51°26.515 3°8.165 220.8 13 213 13.4
2004-12-17 15:07:51 51°26.33 3°7.973 221.3 13.2 213 12.5
2004-12-17 15:08:51 51°26.148 3°7.783 221.3 13 212 12.1
2004-12-17 15:09:51 51°25.968 3°7.592 222.5 13.1 215 12
2004-12-17 15:10:51 51°25.793 3°7.391 224.5 13 217 12.7
2004-12-17 15:11:51 51°25.62 3°7.191 224.6 12.8 218 12.9
2004-12-17 15:12:51 51°25.447 3°6.991 223.5 12.7 214 13
2004-12-17 15:13:51 51°25.274 3°6.792 224.4 12.6 217 13
2004-12-17 15:14:51 51°25.101 3°6.594 225 12.7 218 13.2
2004-12-17 15:15:51 51°24.929 3°6.397 224.2 12.7 215 14.1
2004-12-17 15:16:51 51°24.756 3°6.201 224.4 12.7 214 15.3
2004-12-17 15:17:51 51°24.573 3°6.028 219.9 12.7 210 16.6
2004-12-17 15:18:51 51°24.387 3°5.869 218.7 12.5 209 16.3
2004-12-17 15:19:51 51°24.201 3°5.709 218.2 12.6 208 20.1
2004-12-17 15:20:51 51°24.014 3°5.547 218.8 12.7 210 22.3
2004-12-17 15:21:51 51°23.829 3°5.384 219.3 12.8 209 18
2004-12-17 15:22:51 51°23.65 3°5.219 220.5 12.3 210 16.4
2004-12-17 15:23:51 51°23.475 3°5.053 221.6 12.2 212 16
2004-12-17 15:24:51 51°23.306 3°4.874 224.2 12.1 214 15.8
2004-12-17 15:25:51 51°23.141 3°4.688 225.7 11.9 216 15.9
2004-12-17 15:26:51 51°22.982 3°4.49 227.4 12 218 14.4
2004-12-17 15:27:51 51°22.829 3°4.288 230.6 12 224 14.9
2004-12-17 15:28:51 51°22.679 3°4.076 229.3 11.8 220 14.2
2004-12-17 15:29:51 51°22.528 3°3.864 229.3 12 221 15.5
2004-12-17 15:30:51 51°22.383 3°3.646 230.9 12 222 14.8
2004-12-17 15:31:51 51°22.237 3°3.427 231.4 12 224 15.2
2004-12-17 15:32:51 51°22.098 3°3.203 233.2 11.9 226 15.3
2004-12-17 15:33:51 51°21.96 3°2.976 233.7 11.9 224 15.5
2004-12-17 15:34:51 51°21.822 3°2.751 234 11.8 227 15.3
2004-12-17 15:35:51 51°21.696 3°2.514 237.4 11.7 231 15.1
2004-12-17 15:36:51 51°21.573 3°2.274 237.6 11.7 230 15.1
2004-12-17 15:37:51 51°21.453 3°2.032 239.8 11.6 232 15
2004-12-17 15:38:51 51°21.338 3°1.785 239 11.6 232 14.8
2004-12-17 15:39:51 51°21.22 3°1.541 239.3 11.5 234 14.6
2004-12-17 15:40:51 51°21.105 3°1.292 239.6 11.7 234 14.6
2004-12-17 15:41:51 51°20.988 3°1.043 240.1 11.7 236 14.5
2004-12-17 15:42:51 51°20.875 3°0.791 239.3 11.7 233 14.5
2004-12-17 15:43:51 51°20.761 3°0.543 239.4 11.6 234 14.6
2004-12-17 15:44:51 51°20.645 3°0.295 238.6 11.7 233 14.4
2004-12-17 15:45:51 51°20.531 3°0.045 239.5 11.7 234 14.4
2004-12-17 15:46:51 51°20.417 2°59.796 238.9 11.6 232 14.4
2004-12-17 15:47:51 51°20.303 2°59.546 240.2 11.8 234 14.3
2004-12-17 15:48:51 51°20.189 2°59.295 239.8 11.8 234 14.2
2004-12-17 15:49:51 51°20.075 2°59.047 239.1 11.8 233 14.1
2004-12-17 15:50:51 51°19.97 2°58.786 242.4 11.7 237 13.9
2004-12-17 15:51:51 51°19.863 2°58.527 241.6 11.6 239 13.9
2004-12-17 15:52:51 51°19.76 2°58.261 243.9 11.8 241 13.9
2004-12-17 15:53:51 51°19.662 2°57.99 244.4 11.7 243 13.9
2004-12-17 15:54:51 51°19.563 2°57.719 243.8 11.9 239 14
2004-12-17 15:55:51 51°19.464 2°57.448 244.4 11.8 241 14
2004-12-17 15:56:51 51°19.362 2°57.179 243 11.9 238 14.1
2004-12-17 15:57:51 51°19.253 2°56.915 238.5 12 233 14.1
2004-12-17 15:58:51 51°19.138 2°56.658 239.5 11.9 236 14
2004-12-17 15:59:51 51°19.017 2°56.41 235.2 12 231 14.1
2004-12-17 16:00:51 51°18.897 2°56.155 237.1 12.1 235 14.2
2004-12-17 16:01:51 51°18.777 2°55.905 237 11.9 231 14.2
2004-12-17 16:02:51 51°18.653 2°55.656 233.9 12.2 227 14.2
2004-12-17 16:03:51 51°18.522 2°55.421 233.6 11.9 229 14
2004-12-17 16:04:51 51°18.393 2°55.182 233.1 12 227 13.8
2004-12-17 16:05:51 51°18.26 2°54.947 232.5 11.8 231 13.6
2004-12-17 16:06:51 51°18.12 2°54.727 229.7 11.8 224 13.5
2004-12-17 16:07:51 51°17.976 2°54.511 226.6 11.8 221 13.2
2004-12-17 16:08:51 51°17.834 2°54.287 228.4 11.9 221 13.2
2004-12-17 16:09:51 51°17.691 2°54.067 227.3 11.9 223 13.1
2004-12-17 16:10:51 51°17.541 2°53.862 225.8 11.9 220 13.1
2004-12-17 16:11:51 51°17.377 2°53.679 217 11.8 212 12.6
2004-12-17 16:12:51 51°17.208 2°53.504 215 12.3 206 11.1
2004-12-17 16:13:51 51°17.029 2°53.354 210.2 12.2 203 11.8
2004-12-17 16:14:51 51°16.826 2°53.301 186.3 12.3 178 14.9
2004-12-17 16:15:51 51°16.614 2°53.387 172.8 13.2 161 16
2004-12-17 16:16:51 51°16.416 2°53.556 154.4 14.1 146 16.3
2004-12-17 16:17:51 51°16.217 2°53.701 168.5 13.4 161 15.9
2004-12-17 16:18:51 51°16.015 2°53.828 171.6 13 160 15.5
2004-12-17 16:19:51 51°15.822 2°54.002 155.6 13.4 144 15.1
2004-12-17 16:20:51 51°15.618 2°54.15 170.3 14 165 14.2
2004-12-17 16:21:51 51°15.401 2°54.246 173.7 13.2 168 13.5
2004-12-17 16:22:51 51°15.197 2°54.358 168.3 13.3 158 12.8
2004-12-17 16:23:51 51°14.988 2°54.465 171.3 12.9 164 12.6
2004-12-17 16:24:51 51°14.789 2°54.578 164.5 12.8 154 13.7
2004-12-17 16:25:51 51°14.599 2°54.72 168.9 11.9 160 13.9
2004-12-17 16:26:51 51°14.431 2°54.909 140.6 12.8 132 15
2004-12-17 16:27:51 51°14.308 2°55.179 128 12 124 14.8
2004-12-17 16:28:51 51°14.201 2°55.344 143.3 7.9 140 15.4
2004-12-17 16:29:51 51°14.094 2°55.437 159 6.9 155 14.2
2004-12-17 16:30:51 51°14.008 2°55.502 161.4 5.3 156 14.6
2004-12-17 16:31:51 51°13.935 2°55.551 160.5 4.5 155 14.6
2004-12-17 16:32:51 51°13.871 2°55.596 161.7 4.1 158 14.7
2004-12-17 16:33:51 51°13.811 2°55.641 153.1 3.8 152 15.1
2004-12-17 16:34:51 51°13.769 2°55.692 132.1 3.2 135 14.8
2004-12-17 16:35:55 51°13.731 2°55.759 131.3 3.2 130 -999
2004-12-17 16:36:55 51°13.702 2°55.814 132 2.7 134 -999
2004-12-17 16:37:55 51°13.675 2°55.865 126.2 2.3 128 -999
2004-12-17 16:38:55 51°13.668 2°55.876 121.6 0.3 250 -999
2004-12-17 16:39:55 51°13.665 2°55.872 119.3 0.8 139 -999
2004-12-17 16:40:55 51°13.651 2°55.908 107.9 2.3 110 -999
2004-12-17 16:41:55 51°13.644 2°55.929 104 2.5 110 -999
2004-12-17 16:42:55 51°13.635 2°55.96 112.5 1.7 124 -999
2004-12-17 16:43:55 51°13.635 2°55.963 136.3 2.1 308 -999
2004-12-17 16:44:55 51°13.653 2°55.927 135.2 1.3 309 -999
2004-12-17 16:45:55 51°13.655 2°55.916 127.1 0.2 171 -999
2004-12-17 16:46:55 51°13.642 2°55.942 118.6 2.2 124 -999
2004-12-17 16:47:55 51°13.621 2°56.01 115.5 2.9 114 -999
2004-12-17 16:48:55 51°13.601 2°56.083 117 2.2 119 -999
2004-12-17 16:49:55 51°13.592 2°56.096 109.9 0.2 253 -999
2004-12-17 16:50:55 51°13.587 2°56.102 77.6 0.9 224 -999
2004-12-17 16:51:55 51°13.572 2°56.107 56.5 1.2 185 -999
2004-12-17 16:52:55 51°13.565 2°56.133 34 1.7 83 -999
2004-12-17 16:53:55 51°13.551 2°56.155 24.6 2.4 174 -999
2004-12-17 16:54:55 51°13.545 2°56.17 6.1 1.1 143 -999
2004-12-17 16:55:55 51°13.553 2°56.178 332.9 0.7 110 -999
2004-12-17 16:56:55 51°13.54 2°56.196 313.6 0.8 336 -999
2004-12-17 16:57:55 51°13.564 2°56.142 308.3 3 303 -999
2004-12-17 16:58:55 51°13.586 2°56.089 325.1 1.9 314 -999
2004-12-17 16:59:55 51°13.595 2°56.079 326.6 0.4 139 -999
2004-12-17 17:00:55 51°13.597 2°56.081 325.5 0.2 338 -999
2004-12-17 17:01:55 51°13.598 2°56.083 314.3 0.3 11 -999
2004-12-17 17:02:55 51°13.597 2°56.086 302.3 0.1 300 -999
2004-12-17 17:03:55 51°13.597 2°56.087 301.7 0.5 109 -999
2004-12-17 17:04:55 51°13.597 2°56.087 300.9   203 -999
2004-12-17 17:05:55 51°13.597 2°56.087 302.4   68 -999
2004-12-17 17:06:55 51°13.597 2°56.088 304.5   92 -999
2004-12-17 17:07:55 51°13.598 2°56.088 304.5   18 -999
2004-12-17 17:08:55 51°13.597 2°56.088 304.2   263 -999